sensor_id;sensor_type;location;lat;lon;timestamp;pressure;altitude;pressure_sealevel;temperature;humidity
54194;BME280;40102;50.906;6.972;2022-07-21T00:01:07;101150.91;;;26.04;53.97
54194;BME280;40102;50.906;6.972;2022-07-21T00:03:32;101158.09;;;26.05;53.76
54194;BME280;40102;50.906;6.972;2022-07-21T00:05:59;101162.38;;;26.07;53.69
54194;BME280;40102;50.906;6.972;2022-07-21T00:08:24;101167.00;;;26.07;53.94
54194;BME280;40102;50.906;6.972;2022-07-21T00:10:50;101166.13;;;26.06;54.02
54194;BME280;40102;50.906;6.972;2022-07-21T00:13:15;101178.47;;;26.02;54.46
54194;BME280;40102;50.906;6.972;2022-07-21T00:15:41;101177.50;;;25.95;54.98
54194;BME280;40102;50.906;6.972;2022-07-21T00:18:06;101175.63;;;25.88;55.38
54194;BME280;40102;50.906;6.972;2022-07-21T00:20:31;101161.44;;;25.84;55.72
54194;BME280;40102;50.906;6.972;2022-07-21T00:22:57;101158.00;;;25.82;56.61
54194;BME280;40102;50.906;6.972;2022-07-21T00:25:23;101183.00;;;25.79;57.19
54194;BME280;40102;50.906;6.972;2022-07-21T00:27:49;101182.81;;;25.48;58.20
54194;BME280;40102;50.906;6.972;2022-07-21T00:30:15;101193.53;;;25.01;60.40
54194;BME280;40102;50.906;6.972;2022-07-21T00:32:41;101203.75;;;24.91;60.45
54194;BME280;40102;50.906;6.972;2022-07-21T00:35:08;101191.94;;;24.90;60.31
54194;BME280;40102;50.906;6.972;2022-07-21T00:37:33;101187.56;;;24.97;60.20
54194;BME280;40102;50.906;6.972;2022-07-21T00:39:59;101192.34;;;25.03;60.12
54194;BME280;40102;50.906;6.972;2022-07-21T00:42:29;101204.09;;;24.96;60.27
54194;BME280;40102;50.906;6.972;2022-07-21T00:44:56;101197.41;;;24.90;60.13
54194;BME280;40102;50.906;6.972;2022-07-21T00:47:27;101192.13;;;24.89;59.95
54194;BME280;40102;50.906;6.972;2022-07-21T00:49:53;101194.91;;;24.97;59.91
54194;BME280;40102;50.906;6.972;2022-07-21T00:52:20;101201.06;;;24.99;59.77
54194;BME280;40102;50.906;6.972;2022-07-21T00:54:46;101194.00;;;24.88;60.55
54194;BME280;40102;50.906;6.972;2022-07-21T00:57:13;101194.47;;;24.75;60.82
54194;BME280;40102;50.906;6.972;2022-07-21T00:59:40;101196.34;;;24.75;60.83
54194;BME280;40102;50.906;6.972;2022-07-21T01:02:06;101197.84;;;24.61;61.63
54194;BME280;40102;50.906;6.972;2022-07-21T01:04:31;101199.56;;;24.28;63.35
54194;BME280;40102;50.906;6.972;2022-07-21T01:06:57;101211.91;;;24.14;63.90
54194;BME280;40102;50.906;6.972;2022-07-21T01:09:22;101209.72;;;24.18;63.53
54194;BME280;40102;50.906;6.972;2022-07-21T01:11:48;101207.06;;;24.26;63.19
54194;BME280;40102;50.906;6.972;2022-07-21T01:14:14;101210.34;;;24.30;63.26
54194;BME280;40102;50.906;6.972;2022-07-21T01:16:41;101204.88;;;24.30;62.58
54194;BME280;40102;50.906;6.972;2022-07-21T01:19:07;101210.91;;;24.15;63.48
54194;BME280;40102;50.906;6.972;2022-07-21T01:21:37;101211.53;;;24.09;64.32
54194;BME280;40102;50.906;6.972;2022-07-21T01:24:04;101198.63;;;24.19;63.73
54194;BME280;40102;50.906;6.972;2022-07-21T01:26:30;101187.97;;;24.34;63.43
54194;BME280;40102;50.906;6.972;2022-07-21T01:28:57;101192.78;;;24.40;63.30
54194;BME280;40102;50.906;6.972;2022-07-21T01:31:22;101196.50;;;24.05;65.06
54194;BME280;40102;50.906;6.972;2022-07-21T01:33:49;101193.16;;;23.68;65.73
54194;BME280;40102;50.906;6.972;2022-07-21T01:36:14;101203.97;;;23.06;67.80
54194;BME280;40102;50.906;6.972;2022-07-21T01:38:39;101210.16;;;22.53;70.22
54194;BME280;40102;50.906;6.972;2022-07-21T01:41:23;101216.91;;;22.12;71.49
54194;BME280;40102;50.906;6.972;2022-07-21T01:43:56;101219.94;;;21.90;73.66
54194;BME280;40102;50.906;6.972;2022-07-21T01:46:22;101216.50;;;22.07;73.52
54194;BME280;40102;50.906;6.972;2022-07-21T01:48:47;101214.88;;;22.24;72.40
54194;BME280;40102;50.906;6.972;2022-07-21T01:51:13;101216.31;;;22.55;72.04
54194;BME280;40102;50.906;6.972;2022-07-21T01:53:39;101219.16;;;22.91;69.78
54194;BME280;40102;50.906;6.972;2022-07-21T01:56:05;101213.63;;;23.01;68.53
54194;BME280;40102;50.906;6.972;2022-07-21T01:58:31;101211.28;;;22.88;69.31
54194;BME280;40102;50.906;6.972;2022-07-21T02:00:57;101208.59;;;22.78;69.49
54194;BME280;40102;50.906;6.972;2022-07-21T02:03:22;101216.66;;;22.70;70.29
54194;BME280;40102;50.906;6.972;2022-07-21T02:05:48;101210.97;;;22.63;70.76
54194;BME280;40102;50.906;6.972;2022-07-21T02:08:13;101213.03;;;22.52;71.10
54194;BME280;40102;50.906;6.972;2022-07-21T02:10:39;101215.69;;;22.34;72.28
54194;BME280;40102;50.906;6.972;2022-07-21T02:13:04;101201.38;;;22.22;72.61
54194;BME280;40102;50.906;6.972;2022-07-21T02:15:30;101210.72;;;22.20;72.93
54194;BME280;40102;50.906;6.972;2022-07-21T02:17:57;101204.75;;;22.07;73.29
54194;BME280;40102;50.906;6.972;2022-07-21T02:20:22;101209.34;;;21.87;74.79
54194;BME280;40102;50.906;6.972;2022-07-21T02:22:49;101214.66;;;21.69;75.38
54194;BME280;40102;50.906;6.972;2022-07-21T02:25:15;101211.53;;;21.54;77.40
54194;BME280;40102;50.906;6.972;2022-07-21T02:27:42;101203.81;;;21.50;77.34
54194;BME280;40102;50.906;6.972;2022-07-21T02:30:07;101209.97;;;21.52;78.40
54194;BME280;40102;50.906;6.972;2022-07-21T02:32:33;101208.81;;;21.54;76.80
54194;BME280;40102;50.906;6.972;2022-07-21T02:34:58;101219.84;;;21.62;77.13
54194;BME280;40102;50.906;6.972;2022-07-21T02:37:24;101202.34;;;21.65;76.20
54194;BME280;40102;50.906;6.972;2022-07-21T02:39:49;101199.78;;;21.54;76.98
54194;BME280;40102;50.906;6.972;2022-07-21T02:42:14;101195.94;;;21.27;79.09
54194;BME280;40102;50.906;6.972;2022-07-21T02:44:40;101195.50;;;21.32;80.48
54194;BME280;40102;50.906;6.972;2022-07-21T02:47:05;101185.31;;;21.63;80.17
54194;BME280;40102;50.906;6.972;2022-07-21T02:49:31;101189.97;;;21.99;77.12
54194;BME280;40102;50.906;6.972;2022-07-21T02:51:56;101185.25;;;22.39;74.97
54194;BME280;40102;50.906;6.972;2022-07-21T02:54:21;101191.13;;;22.71;72.08
54194;BME280;40102;50.906;6.972;2022-07-21T02:56:46;101182.47;;;22.48;73.14
54194;BME280;40102;50.906;6.972;2022-07-21T02:59:12;101172.94;;;22.35;74.60
54194;BME280;40102;50.906;6.972;2022-07-21T03:01:37;101171.78;;;22.37;74.41
54194;BME280;40102;50.906;6.972;2022-07-21T03:04:03;101173.66;;;22.64;73.44
54194;BME280;40102;50.906;6.972;2022-07-21T03:06:28;101162.75;;;22.91;71.99
54194;BME280;40102;50.906;6.972;2022-07-21T03:08:53;101165.00;;;23.14;70.11
54194;BME280;40102;50.906;6.972;2022-07-21T03:11:19;101176.78;;;23.14;69.07
54194;BME280;40102;50.906;6.972;2022-07-21T03:13:44;101174.44;;;23.02;70.05
54194;BME280;40102;50.906;6.972;2022-07-21T03:16:09;101180.44;;;22.87;70.28
54194;BME280;40102;50.906;6.972;2022-07-21T03:18:35;101184.66;;;22.72;70.89
54194;BME280;40102;50.906;6.972;2022-07-21T03:21:00;101174.16;;;22.50;71.77
54194;BME280;40102;50.906;6.972;2022-07-21T03:23:26;101168.84;;;22.21;73.66
54194;BME280;40102;50.906;6.972;2022-07-21T03:25:51;101165.19;;;21.93;75.15
54194;BME280;40102;50.906;6.972;2022-07-21T03:28:17;101170.69;;;21.74;76.27
54194;BME280;40102;50.906;6.972;2022-07-21T03:30:42;101168.81;;;21.64;77.00
54194;BME280;40102;50.906;6.972;2022-07-21T03:33:08;101172.69;;;21.72;76.93
54194;BME280;40102;50.906;6.972;2022-07-21T03:35:33;101177.97;;;21.83;76.55
54194;BME280;40102;50.906;6.972;2022-07-21T03:38:01;101172.19;;;21.95;74.97
54194;BME280;40102;50.906;6.972;2022-07-21T03:40:32;101167.63;;;21.86;76.05
54194;BME280;40102;50.906;6.972;2022-07-21T03:43:00;101178.56;;;21.67;76.49
54194;BME280;40102;50.906;6.972;2022-07-21T03:45:26;101175.44;;;21.52;77.49
54194;BME280;40102;50.906;6.972;2022-07-21T03:47:55;101172.00;;;21.50;77.21
54194;BME280;40102;50.906;6.972;2022-07-21T03:50:21;101169.84;;;21.54;76.78
54194;BME280;40102;50.906;6.972;2022-07-21T03:52:46;101171.00;;;21.51;77.27
54194;BME280;40102;50.906;6.972;2022-07-21T03:55:12;101161.13;;;21.50;77.63
54194;BME280;40102;50.906;6.972;2022-07-21T03:57:47;101163.13;;;21.48;77.04
54194;BME280;40102;50.906;6.972;2022-07-21T04:00:16;101158.41;;;21.41;77.06
54194;BME280;40102;50.906;6.972;2022-07-21T04:02:42;101159.97;;;21.43;77.18
54194;BME280;40102;50.906;6.972;2022-07-21T04:05:11;101153.66;;;21.52;76.48
54194;BME280;40102;50.906;6.972;2022-07-21T04:07:39;101150.22;;;21.60;76.28
54194;BME280;40102;50.906;6.972;2022-07-21T04:10:05;101155.50;;;21.71;75.99
54194;BME280;40102;50.906;6.972;2022-07-21T04:12:31;101143.25;;;21.94;74.48
54194;BME280;40102;50.906;6.972;2022-07-21T04:14:56;101148.00;;;22.29;72.68
54194;BME280;40102;50.906;6.972;2022-07-21T04:17:22;101144.97;;;22.60;71.51
54194;BME280;40102;50.906;6.972;2022-07-21T04:19:48;101147.44;;;22.81;70.06
54194;BME280;40102;50.906;6.972;2022-07-21T04:22:13;101140.44;;;22.96;69.06
54194;BME280;40102;50.906;6.972;2022-07-21T04:24:38;101145.53;;;23.09;68.33
54194;BME280;40102;50.906;6.972;2022-07-21T04:27:04;101146.94;;;23.13;68.34
54194;BME280;40102;50.906;6.972;2022-07-21T04:29:29;101151.06;;;23.17;67.95
54194;BME280;40102;50.906;6.972;2022-07-21T04:31:55;101147.00;;;23.03;68.46
54194;BME280;40102;50.906;6.972;2022-07-21T04:34:20;101145.97;;;22.86;69.45
54194;BME280;40102;50.906;6.972;2022-07-21T04:36:45;101147.34;;;22.73;70.18
54194;BME280;40102;50.906;6.972;2022-07-21T04:39:11;101145.53;;;22.63;70.90
54194;BME280;40102;50.906;6.972;2022-07-21T04:41:36;101155.03;;;22.59;71.32
54194;BME280;40102;50.906;6.972;2022-07-21T04:44:02;101153.16;;;22.60;71.12
54194;BME280;40102;50.906;6.972;2022-07-21T04:46:27;101158.38;;;22.71;70.41
54194;BME280;40102;50.906;6.972;2022-07-21T04:48:52;101154.97;;;22.69;70.76
54194;BME280;40102;50.906;6.972;2022-07-21T04:51:18;101169.19;;;22.63;70.91
54194;BME280;40102;50.906;6.972;2022-07-21T04:53:43;101170.47;;;22.69;70.75
54194;BME280;40102;50.906;6.972;2022-07-21T04:56:08;101166.25;;;22.84;70.05
54194;BME280;40102;50.906;6.972;2022-07-21T04:58:34;101168.28;;;23.00;69.28
54194;BME280;40102;50.906;6.972;2022-07-21T05:00:59;101172.50;;;23.12;68.31
54194;BME280;40102;50.906;6.972;2022-07-21T05:03:24;101170.00;;;23.18;68.27
54194;BME280;40102;50.906;6.972;2022-07-21T05:05:49;101180.13;;;23.26;67.24
54194;BME280;40102;50.906;6.972;2022-07-21T05:08:15;101181.00;;;23.26;66.72
54194;BME280;40102;50.906;6.972;2022-07-21T05:10:40;101180.53;;;23.31;66.88
54194;BME280;40102;50.906;6.972;2022-07-21T05:13:06;101180.91;;;23.36;66.58
54194;BME280;40102;50.906;6.972;2022-07-21T05:15:31;101195.41;;;23.37;66.51
54194;BME280;40102;50.906;6.972;2022-07-21T05:17:56;101196.91;;;23.31;66.43
54194;BME280;40102;50.906;6.972;2022-07-21T05:20:22;101203.69;;;23.27;67.17
54194;BME280;40102;50.906;6.972;2022-07-21T05:22:47;101195.09;;;23.22;67.46
54194;BME280;40102;50.906;6.972;2022-07-21T05:25:12;101195.72;;;23.16;67.71
54194;BME280;40102;50.906;6.972;2022-07-21T05:27:38;101200.31;;;23.15;67.57
54194;BME280;40102;50.906;6.972;2022-07-21T05:30:04;101213.25;;;23.13;66.76
54194;BME280;40102;50.906;6.972;2022-07-21T05:32:30;101216.81;;;22.96;66.72
54194;BME280;40102;50.906;6.972;2022-07-21T05:34:55;101204.75;;;22.71;67.42
54194;BME280;40102;50.906;6.972;2022-07-21T05:37:20;101205.66;;;22.62;67.55
54194;BME280;40102;50.906;6.972;2022-07-21T05:39:46;101206.16;;;22.48;67.79
54194;BME280;40102;50.906;6.972;2022-07-21T05:42:11;101207.16;;;22.47;67.81
54194;BME280;40102;50.906;6.972;2022-07-21T05:44:36;101195.31;;;22.38;68.33
54194;BME280;40102;50.906;6.972;2022-07-21T05:47:02;101196.56;;;22.44;68.43
54194;BME280;40102;50.906;6.972;2022-07-21T05:49:27;101182.00;;;22.25;69.09
54194;BME280;40102;50.906;6.972;2022-07-21T05:51:53;101189.38;;;22.15;68.57
54194;BME280;40102;50.906;6.972;2022-07-21T05:54:18;101188.25;;;22.08;68.86
54194;BME280;40102;50.906;6.972;2022-07-21T05:56:43;101198.41;;;22.16;68.74
54194;BME280;40102;50.906;6.972;2022-07-21T05:59:08;101196.91;;;22.31;68.58
54194;BME280;40102;50.906;6.972;2022-07-21T06:01:34;101206.47;;;22.45;68.20
54194;BME280;40102;50.906;6.972;2022-07-21T06:03:59;101204.97;;;22.23;66.95
54194;BME280;40102;50.906;6.972;2022-07-21T06:06:24;101212.88;;;22.16;67.27
54194;BME280;40102;50.906;6.972;2022-07-21T06:08:50;101223.06;;;22.14;67.25
54194;BME280;40102;50.906;6.972;2022-07-21T06:11:18;101213.44;;;22.20;66.47
54194;BME280;40102;50.906;6.972;2022-07-21T06:13:45;101217.03;;;22.20;65.89
54194;BME280;40102;50.906;6.972;2022-07-21T06:16:11;101224.91;;;22.23;65.93
54194;BME280;40102;50.906;6.972;2022-07-21T06:18:37;101222.03;;;22.25;65.55
54194;BME280;40102;50.906;6.972;2022-07-21T06:21:03;101205.69;;;22.25;65.41
54194;BME280;40102;50.906;6.972;2022-07-21T06:23:29;101192.50;;;22.20;65.58
54194;BME280;40102;50.906;6.972;2022-07-21T06:25:55;101198.53;;;22.14;66.12
54194;BME280;40102;50.906;6.972;2022-07-21T06:28:20;101199.84;;;22.01;66.76
54194;BME280;40102;50.906;6.972;2022-07-21T06:30:46;101211.34;;;21.85;66.92
54194;BME280;40102;50.906;6.972;2022-07-21T06:33:12;101212.34;;;21.84;67.05
54194;BME280;40102;50.906;6.972;2022-07-21T06:35:38;101209.75;;;21.92;66.98
54194;BME280;40102;50.906;6.972;2022-07-21T06:38:04;101200.47;;;21.85;67.68
54194;BME280;40102;50.906;6.972;2022-07-21T06:40:29;101207.78;;;21.84;68.09
54194;BME280;40102;50.906;6.972;2022-07-21T06:42:55;101212.03;;;21.96;67.88
54194;BME280;40102;50.906;6.972;2022-07-21T06:45:21;101212.47;;;21.92;68.79
54194;BME280;40102;50.906;6.972;2022-07-21T06:47:47;101202.31;;;22.04;68.31
54194;BME280;40102;50.906;6.972;2022-07-21T06:50:12;101205.72;;;22.15;68.16
54194;BME280;40102;50.906;6.972;2022-07-21T06:52:38;101197.50;;;22.25;67.88
54194;BME280;40102;50.906;6.972;2022-07-21T06:55:05;101199.19;;;22.36;67.71
54194;BME280;40102;50.906;6.972;2022-07-21T06:57:31;101201.16;;;22.43;67.48
54194;BME280;40102;50.906;6.972;2022-07-21T06:59:56;101193.84;;;22.44;67.55
54194;BME280;40102;50.906;6.972;2022-07-21T07:02:21;101193.25;;;22.50;67.29
54194;BME280;40102;50.906;6.972;2022-07-21T07:04:47;101202.06;;;22.61;67.11
54194;BME280;40102;50.906;6.972;2022-07-21T07:07:12;101196.47;;;22.63;67.82
54194;BME280;40102;50.906;6.972;2022-07-21T07:09:38;101203.19;;;22.69;67.45
54194;BME280;40102;50.906;6.972;2022-07-21T07:12:04;101206.31;;;22.74;67.30
54194;BME280;40102;50.906;6.972;2022-07-21T07:14:30;101200.13;;;22.81;67.30
54194;BME280;40102;50.906;6.972;2022-07-21T07:16:57;101203.66;;;22.91;66.58
54194;BME280;40102;50.906;6.972;2022-07-21T07:19:23;101214.81;;;22.98;66.64
54194;BME280;40102;50.906;6.972;2022-07-21T07:21:48;101215.56;;;22.90;67.27
54194;BME280;40102;50.906;6.972;2022-07-21T07:24:13;101212.69;;;22.65;68.33
54194;BME280;40102;50.906;6.972;2022-07-21T07:26:39;101213.53;;;22.38;69.28
54194;BME280;40102;50.906;6.972;2022-07-21T07:29:04;101207.69;;;22.23;70.46
54194;BME280;40102;50.906;6.972;2022-07-21T07:31:29;101205.72;;;21.96;72.25
54194;BME280;40102;50.906;6.972;2022-07-21T07:33:55;101209.50;;;21.85;72.61
54194;BME280;40102;50.906;6.972;2022-07-21T07:36:27;101207.78;;;21.75;75.17
54194;BME280;40102;50.906;6.972;2022-07-21T07:38:54;101205.66;;;21.69;75.66
54194;BME280;40102;50.906;6.972;2022-07-21T07:41:21;101205.06;;;21.75;75.23
54194;BME280;40102;50.906;6.972;2022-07-21T07:43:47;101207.63;;;21.76;77.32
54194;BME280;40102;50.906;6.972;2022-07-21T07:46:13;101203.03;;;21.86;76.63
54194;BME280;40102;50.906;6.972;2022-07-21T07:48:40;101198.56;;;21.95;76.23
54194;BME280;40102;50.906;6.972;2022-07-21T07:51:06;101202.72;;;22.09;74.31
54194;BME280;40102;50.906;6.972;2022-07-21T07:53:32;101200.22;;;22.25;72.21
54194;BME280;40102;50.906;6.972;2022-07-21T07:55:57;101200.50;;;22.32;71.51
54194;BME280;40102;50.906;6.972;2022-07-21T07:58:23;101210.91;;;22.46;70.56
54194;BME280;40102;50.906;6.972;2022-07-21T08:00:48;101222.22;;;22.51;69.86
54194;BME280;40102;50.906;6.972;2022-07-21T08:03:14;101214.19;;;22.49;69.55
54194;BME280;40102;50.906;6.972;2022-07-21T08:05:39;101205.59;;;22.44;69.09
54194;BME280;40102;50.906;6.972;2022-07-21T08:08:05;101195.25;;;22.48;69.33
54194;BME280;40102;50.906;6.972;2022-07-21T08:10:30;101189.19;;;22.54;69.44
54194;BME280;40102;50.906;6.972;2022-07-21T08:12:55;101187.63;;;22.51;70.91
54194;BME280;40102;50.906;6.972;2022-07-21T08:15:21;101192.13;;;22.43;69.56
54194;BME280;40102;50.906;6.972;2022-07-21T08:17:46;101204.34;;;22.39;69.03
54194;BME280;40102;50.906;6.972;2022-07-21T08:20:12;101206.16;;;22.48;68.83
54194;BME280;40102;50.906;6.972;2022-07-21T08:22:37;101206.38;;;22.64;68.56
54194;BME280;40102;50.906;6.972;2022-07-21T08:25:03;101206.47;;;22.72;67.30
54194;BME280;40102;50.906;6.972;2022-07-21T08:27:29;101207.00;;;22.85;66.67
54194;BME280;40102;50.906;6.972;2022-07-21T08:29:54;101195.78;;;22.88;67.09
54194;BME280;40102;50.906;6.972;2022-07-21T08:32:19;101186.88;;;22.86;67.05
54194;BME280;40102;50.906;6.972;2022-07-21T08:34:45;101201.25;;;22.79;67.21
54194;BME280;40102;50.906;6.972;2022-07-21T08:37:11;101201.78;;;22.65;66.08
54194;BME280;40102;50.906;6.972;2022-07-21T08:39:37;101203.94;;;22.61;65.92
54194;BME280;40102;50.906;6.972;2022-07-21T08:42:02;101207.00;;;22.48;64.95
54194;BME280;40102;50.906;6.972;2022-07-21T08:44:28;101195.91;;;22.59;64.88
54194;BME280;40102;50.906;6.972;2022-07-21T08:46:53;101201.47;;;22.68;65.16
54194;BME280;40102;50.906;6.972;2022-07-21T08:49:21;101209.03;;;22.74;65.90
54194;BME280;40102;50.906;6.972;2022-07-21T08:51:50;101210.34;;;22.79;65.04
54194;BME280;40102;50.906;6.972;2022-07-21T08:54:18;101209.56;;;22.87;63.96
54194;BME280;40102;50.906;6.972;2022-07-21T08:56:44;101215.41;;;22.92;63.27
54194;BME280;40102;50.906;6.972;2022-07-21T08:59:09;101210.81;;;22.92;62.49
54194;BME280;40102;50.906;6.972;2022-07-21T09:01:35;101221.44;;;22.96;62.64
54194;BME280;40102;50.906;6.972;2022-07-21T09:06:52;101209.91;;;23.02;62.50
54194;BME280;40102;50.906;6.972;2022-07-21T09:09:19;101205.22;;;23.12;62.20
54194;BME280;40102;50.906;6.972;2022-07-21T09:11:48;101208.91;;;23.20;62.18
54194;BME280;40102;50.906;6.972;2022-07-21T09:14:16;101198.84;;;23.21;61.62
54194;BME280;40102;50.906;6.972;2022-07-21T09:16:47;101197.38;;;23.26;61.03
54194;BME280;40102;50.906;6.972;2022-07-21T09:21:40;101205.88;;;23.23;59.82
54194;BME280;40102;50.906;6.972;2022-07-21T09:24:25;101213.34;;;23.21;59.47
54194;BME280;40102;50.906;6.972;2022-07-21T09:29:23;101212.94;;;23.16;59.79
54194;BME280;40102;50.906;6.972;2022-07-21T09:31:49;101226.44;;;23.18;60.06
54194;BME280;40102;50.906;6.972;2022-07-21T09:34:14;101213.66;;;23.18;59.49
54194;BME280;40102;50.906;6.972;2022-07-21T09:36:54;101201.09;;;23.25;59.12
54194;BME280;40102;50.906;6.972;2022-07-21T09:39:39;101214.06;;;23.23;58.54
54194;BME280;40102;50.906;6.972;2022-07-21T09:42:33;101210.06;;;23.18;59.38
54194;BME280;40102;50.906;6.972;2022-07-21T09:45:00;101209.06;;;23.19;59.06
54194;BME280;40102;50.906;6.972;2022-07-21T09:47:28;101205.88;;;23.23;58.48
54194;BME280;40102;50.906;6.972;2022-07-21T09:49:55;101211.31;;;23.23;58.71
54194;BME280;40102;50.906;6.972;2022-07-21T09:54:47;101212.25;;;23.32;56.59
54194;BME280;40102;50.906;6.972;2022-07-21T09:57:15;101219.75;;;23.30;56.56
54194;BME280;40102;50.906;6.972;2022-07-21T09:59:43;101215.44;;;23.27;57.20
54194;BME280;40102;50.906;6.972;2022-07-21T10:02:30;101218.03;;;23.29;56.86
54194;BME280;40102;50.906;6.972;2022-07-21T10:05:03;101212.25;;;23.32;56.63
54194;BME280;40102;50.906;6.972;2022-07-21T10:07:30;101221.38;;;23.41;56.79
54194;BME280;40102;50.906;6.972;2022-07-21T10:09:57;101222.09;;;23.43;56.25
54194;BME280;40102;50.906;6.972;2022-07-21T10:12:24;101221.06;;;23.44;56.83
54194;BME280;40102;50.906;6.972;2022-07-21T10:14:50;101220.59;;;23.48;56.46
54194;BME280;40102;50.906;6.972;2022-07-21T10:17:17;101223.88;;;23.52;56.54
54194;BME280;40102;50.906;6.972;2022-07-21T10:20:19;101225.47;;;23.54;55.26
54194;BME280;40102;50.906;6.972;2022-07-21T10:22:59;101225.03;;;23.49;55.55
54194;BME280;40102;50.906;6.972;2022-07-21T10:25:28;101225.75;;;23.51;55.56
54194;BME280;40102;50.906;6.972;2022-07-21T10:30:40;101230.34;;;23.51;55.44
54194;BME280;40102;50.906;6.972;2022-07-21T10:33:06;101214.97;;;23.50;54.60
54194;BME280;40102;50.906;6.972;2022-07-21T10:35:32;101225.03;;;23.49;53.89
54194;BME280;40102;50.906;6.972;2022-07-21T10:38:36;101230.34;;;23.51;53.54
54194;BME280;40102;50.906;6.972;2022-07-21T10:41:04;101227.22;;;23.46;53.74
54194;BME280;40102;50.906;6.972;2022-07-21T10:45:57;101236.28;;;23.46;54.50
54194;BME280;40102;50.906;6.972;2022-07-21T10:51:16;101243.06;;;23.42;54.72
54194;BME280;40102;50.906;6.972;2022-07-21T10:53:43;101238.31;;;23.44;54.97
54194;BME280;40102;50.906;6.972;2022-07-21T10:56:28;101242.06;;;23.43;55.08
54194;BME280;40102;50.906;6.972;2022-07-21T10:58:53;101245.47;;;23.45;55.46
54194;BME280;40102;50.906;6.972;2022-07-21T11:01:22;101246.19;;;23.47;56.17
54194;BME280;40102;50.906;6.972;2022-07-21T11:04:12;101244.00;;;23.51;56.12
54194;BME280;40102;50.906;6.972;2022-07-21T11:06:39;101248.28;;;23.53;56.59
54194;BME280;40102;50.906;6.972;2022-07-21T11:09:18;101254.53;;;23.46;56.98
54194;BME280;40102;50.906;6.972;2022-07-21T11:12:02;101241.97;;;23.35;57.55
54194;BME280;40102;50.906;6.972;2022-07-21T11:14:42;101239.72;;;23.31;58.59
54194;BME280;40102;50.906;6.972;2022-07-21T11:17:44;101248.06;;;23.29;58.37
54194;BME280;40102;50.906;6.972;2022-07-21T11:20:13;101256.00;;;23.22;58.50
54194;BME280;40102;50.906;6.972;2022-07-21T11:22:40;101252.00;;;23.17;59.15
54194;BME280;40102;50.906;6.972;2022-07-21T11:25:06;101251.00;;;23.18;59.28
54194;BME280;40102;50.906;6.972;2022-07-21T11:27:34;101255.91;;;23.14;60.21
54194;BME280;40102;50.906;6.972;2022-07-21T11:30:03;101260.19;;;23.17;60.39
54194;BME280;40102;50.906;6.972;2022-07-21T11:32:29;101261.59;;;23.21;61.13
54194;BME280;40102;50.906;6.972;2022-07-21T11:34:59;101262.47;;;23.21;61.33
54194;BME280;40102;50.906;6.972;2022-07-21T11:37:36;101278.84;;;23.21;62.64
54194;BME280;40102;50.906;6.972;2022-07-21T11:42:35;101299.06;;;23.01;65.88
54194;BME280;40102;50.906;6.972;2022-07-21T11:45:01;101301.13;;;22.89;66.49
54194;BME280;40102;50.906;6.972;2022-07-21T11:47:27;101307.59;;;22.79;67.87
54194;BME280;40102;50.906;6.972;2022-07-21T11:49:54;101308.09;;;22.65;68.71
54194;BME280;40102;50.906;6.972;2022-07-21T11:52:28;101316.34;;;22.45;70.30
54194;BME280;40102;50.906;6.972;2022-07-21T11:54:55;101306.91;;;22.30;71.85
54194;BME280;40102;50.906;6.972;2022-07-21T11:57:22;101303.63;;;22.26;72.25
54194;BME280;40102;50.906;6.972;2022-07-21T11:59:48;101308.09;;;22.18;72.86
54194;BME280;40102;50.906;6.972;2022-07-21T12:02:17;101303.19;;;22.21;73.39
54194;BME280;40102;50.906;6.972;2022-07-21T12:09:43;101300.56;;;22.49;71.60
54194;BME280;40102;50.906;6.972;2022-07-21T12:12:10;101300.97;;;22.54;71.28
54194;BME280;40102;50.906;6.972;2022-07-21T12:14:44;101289.31;;;22.61;71.59
54194;BME280;40102;50.906;6.972;2022-07-21T12:17:10;101299.78;;;22.66;71.56
54194;BME280;40102;50.906;6.972;2022-07-21T12:19:36;101292.59;;;22.65;71.22
54194;BME280;40102;50.906;6.972;2022-07-21T12:22:01;101287.00;;;22.67;70.87
54194;BME280;40102;50.906;6.972;2022-07-21T12:24:55;101280.69;;;22.66;71.26
54194;BME280;40102;50.906;6.972;2022-07-21T12:27:22;101287.59;;;22.60;71.66
54194;BME280;40102;50.906;6.972;2022-07-21T12:29:48;101288.19;;;22.54;72.16
54194;BME280;40102;50.906;6.972;2022-07-21T12:32:20;101281.31;;;22.50;71.54
54194;BME280;40102;50.906;6.972;2022-07-21T12:35:00;101292.66;;;22.46;71.79
54194;BME280;40102;50.906;6.972;2022-07-21T12:37:55;101285.19;;;22.48;71.95
54194;BME280;40102;50.906;6.972;2022-07-21T12:40:21;101285.63;;;22.53;72.00
54194;BME280;40102;50.906;6.972;2022-07-21T12:42:47;101285.03;;;22.59;71.86
54194;BME280;40102;50.906;6.972;2022-07-21T12:45:18;101296.19;;;22.66;71.96
54194;BME280;40102;50.906;6.972;2022-07-21T12:48:10;101281.94;;;22.72;71.30
54194;BME280;40102;50.906;6.972;2022-07-21T12:50:36;101289.97;;;22.73;71.49
54194;BME280;40102;50.906;6.972;2022-07-21T12:53:13;101290.53;;;22.77;71.29
54194;BME280;40102;50.906;6.972;2022-07-21T12:55:38;101290.38;;;22.78;70.81
54194;BME280;40102;50.906;6.972;2022-07-21T12:58:04;101292.84;;;22.81;70.57
54194;BME280;40102;50.906;6.972;2022-07-21T13:00:30;101289.81;;;22.84;70.84
54194;BME280;40102;50.906;6.972;2022-07-21T13:02:56;101291.53;;;22.85;70.51
54194;BME280;40102;50.906;6.972;2022-07-21T13:05:23;101285.94;;;22.87;71.05
54194;BME280;40102;50.906;6.972;2022-07-21T13:07:51;101284.22;;;22.86;70.28
54194;BME280;40102;50.906;6.972;2022-07-21T13:10:17;101282.66;;;22.83;70.59
54194;BME280;40102;50.906;6.972;2022-07-21T13:12:43;101283.22;;;22.77;71.01
54194;BME280;40102;50.906;6.972;2022-07-21T13:15:09;101288.41;;;22.71;71.50
54194;BME280;40102;50.906;6.972;2022-07-21T13:17:34;101278.97;;;22.65;71.39